createdAt,value
2019-03-08T00:04:13.184Z,72.86
2019-03-08T00:09:12.136Z,73.07
2019-03-08T00:14:11.540Z,72.71
2019-03-08T00:19:11.194Z,74.44
2019-03-08T00:24:11.109Z,76.45
2019-03-08T00:29:10.105Z,78.83
2019-03-08T00:34:10.115Z,81.15
2019-03-08T00:39:10.077Z,81.82
2019-03-08T00:44:11.119Z,81.98
2019-03-08T00:49:11.082Z,81.77
2019-03-08T00:54:11.098Z,81.48
2019-03-08T00:59:10.119Z,80.97
2019-03-08T01:04:10.131Z,81.14
2019-03-08T01:09:10.096Z,80.70
2019-03-08T01:14:09.512Z,80.72
2019-03-08T01:19:09.090Z,81.68
2019-03-08T01:24:09.123Z,81.57
2019-03-08T01:29:09.226Z,81.61
2019-03-08T01:34:08.312Z,82.46
2019-03-08T01:39:07.130Z,83.06
2019-03-08T01:44:07.168Z,84.17
2019-03-08T01:49:06.800Z,84.05
2019-03-08T01:54:07.493Z,84.74
2019-03-08T01:59:06.459Z,85.87
2019-03-08T02:04:06.257Z,86.37
2019-03-08T02:09:06.567Z,86.31
2019-03-08T02:14:07.111Z,87.11
2019-03-08T02:19:06.095Z,86.60
2019-03-08T02:24:06.118Z,87.21
2019-03-08T02:29:07.140Z,86.99
2019-03-08T02:34:06.157Z,86.84
2019-03-08T02:39:07.377Z,86.62
2019-03-08T02:49:06.414Z,87.53
2019-03-08T02:54:06.411Z,87.26
2019-03-08T02:59:06.160Z,87.95
2019-03-08T03:04:07.275Z,88.98
2019-03-08T03:09:07.228Z,88.42
2019-03-08T03:14:06.113Z,88.86
2019-03-08T03:19:05.571Z,88.71
2019-03-08T03:24:04.234Z,88.13
2019-03-08T03:29:05.369Z,87.48
2019-03-08T03:34:05.525Z,87.74
2019-03-08T03:39:04.147Z,88.35
2019-03-08T03:44:03.617Z,88.47
2019-03-08T03:49:03.337Z,88.82
2019-03-08T03:54:03.533Z,88.98
2019-03-08T03:59:03.361Z,89.40
2019-03-08T04:04:03.130Z,89.29
2019-03-08T04:09:03.187Z,88.97
2019-03-08T04:14:02.398Z,88.60
2019-03-08T04:19:01.169Z,89.35
2019-03-08T04:24:01.153Z,88.95
2019-03-08T04:29:00.503Z,88.89
2019-03-08T04:34:01.367Z,88.82
2019-03-08T04:39:02.153Z,88.44
2019-03-08T04:44:02.211Z,88.44
2019-03-08T04:49:03.234Z,88.26
2019-03-08T04:54:02.159Z,88.46
2019-03-08T04:59:02.448Z,88.22
2019-03-08T05:04:02.225Z,88.24
2019-03-08T05:09:02.337Z,87.62
2019-03-08T05:14:02.099Z,87.93
2019-03-08T05:19:02.347Z,87.74
2019-03-08T05:24:02.154Z,87.83
2019-03-08T05:29:03.351Z,87.70
2019-03-08T05:34:03.178Z,87.61
2019-03-08T05:39:02.662Z,87.67
2019-03-08T05:44:02.194Z,87.47
2019-03-08T05:49:02.406Z,87.66
2019-03-08T05:54:01.127Z,87.47
2019-03-08T05:59:01.349Z,87.25
2019-03-08T06:04:01.157Z,87.64
2019-03-08T06:09:01.407Z,87.51
2019-03-08T06:14:00.232Z,87.30
2019-03-08T06:19:00.637Z,87.16
2019-03-08T06:23:59.144Z,87.21
2019-03-08T06:28:58.584Z,87.61
2019-03-08T06:33:59.395Z,86.99
2019-03-08T06:38:59.214Z,86.86
2019-03-08T06:43:59.218Z,86.52
2019-03-08T06:48:59.407Z,86.69
2019-03-08T06:53:59.404Z,86.69
2019-03-08T06:59:00.483Z,86.62
2019-03-08T07:04:00.608Z,86.44
2019-03-08T07:09:00.365Z,86.16
2019-03-08T07:14:00.231Z,85.40
2019-03-08T07:18:59.198Z,84.89
2019-03-08T07:23:59.232Z,85.24
2019-03-08T07:28:58.409Z,84.57
2019-03-08T07:33:58.258Z,84.48
2019-03-08T07:38:57.649Z,84.31
2019-03-08T07:43:58.354Z,84.64
2019-03-08T07:48:58.336Z,83.80
2019-03-08T07:53:59.226Z,84.28
2019-03-08T07:58:58.230Z,83.92
2019-03-08T08:03:57.217Z,82.98
2019-03-08T08:08:57.277Z,83.11
2019-03-08T08:13:56.598Z,82.36
2019-03-08T08:18:57.215Z,82.05
2019-03-08T08:23:57.208Z,83.14
2019-03-08T08:28:56.215Z,82.02
2019-03-08T08:33:56.277Z,81.98
2019-03-08T08:39:05.318Z,81.39
2019-03-08T08:43:55.569Z,80.79
2019-03-08T08:48:54.280Z,79.91
2019-03-08T08:53:53.302Z,79.80
2019-03-08T08:58:52.259Z,78.90
2019-03-08T09:03:52.241Z,78.21
2019-03-08T09:08:51.258Z,77.05
2019-03-08T09:13:51.275Z,76.85
2019-03-08T09:18:51.242Z,76.28
2019-03-08T09:23:50.506Z,77.95
2019-03-08T09:28:49.627Z,77.80
2019-03-08T09:33:49.252Z,77.14
2019-03-08T09:38:49.298Z,77.24
2019-03-08T09:43:50.240Z,74.15
2019-03-08T09:48:49.624Z,72.68
2019-03-08T09:53:50.245Z,74.29
2019-03-08T09:58:51.247Z,74.15
2019-03-08T10:03:50.707Z,75.78
2019-03-08T10:08:50.292Z,73.24
2019-03-08T10:13:49.616Z,72.74
2019-03-08T10:18:49.286Z,75.67
2019-03-08T10:23:48.593Z,75.02
2019-03-08T10:28:47.275Z,72.50
2019-03-08T10:33:46.860Z,72.60
2019-03-08T10:38:46.313Z,72.59
2019-03-08T10:43:45.235Z,71.14
2019-03-08T10:48:44.547Z,70.13
2019-03-08T10:53:44.267Z,70.86
2019-03-08T10:58:44.272Z,72.40
2019-03-08T11:03:45.303Z,72.26
2019-03-08T11:08:46.339Z,70.24
2019-03-08T11:13:46.374Z,72.90
2019-03-08T11:18:46.317Z,78.15
2019-03-08T11:23:45.220Z,78.34
2019-03-08T11:28:46.303Z,79.86
2019-03-08T11:33:45.267Z,78.25
2019-03-08T11:38:45.290Z,77.60
2019-03-08T11:43:44.367Z,79.85
2019-03-08T11:48:44.321Z,78.72
2019-03-08T11:53:43.295Z,78.92
2019-03-08T11:58:42.549Z,78.48
2019-03-08T12:03:41.240Z,78.47
2019-03-08T12:08:40.268Z,80.08
2019-03-08T12:13:40.561Z,76.70
2019-03-08T12:18:39.302Z,78.10
2019-03-08T12:23:38.478Z,76.05
2019-03-08T12:28:38.257Z,75.53
2019-03-08T12:33:38.285Z,74.67
2019-03-08T12:38:37.429Z,74.27
2019-03-08T12:43:36.416Z,74.74
2019-03-08T12:48:35.364Z,76.02
2019-03-08T12:53:35.341Z,73.93
2019-03-08T12:58:34.318Z,71.98
2019-03-08T13:03:34.303Z,72.18
2019-03-08T13:08:33.572Z,74.05
2019-03-08T13:13:33.258Z,71.58
2019-03-08T13:18:32.553Z,71.78
2019-03-08T13:23:31.831Z,71.35
2019-03-08T13:28:31.483Z,71.06
2019-03-08T13:33:32.394Z,66.89
2019-03-08T13:38:32.297Z,66.45
2019-03-08T13:43:33.291Z,65.45
2019-03-08T13:48:33.293Z,63.37
2019-03-08T13:53:33.415Z,62.96
2019-03-08T13:58:32.356Z,64.05
2019-03-08T14:03:31.529Z,64.36
2019-03-08T14:08:30.389Z,65.19
2019-03-08T14:13:31.429Z,63.28
2019-03-08T14:18:30.717Z,65.20
2019-03-08T14:23:29.673Z,63.40
2019-03-08T14:28:29.298Z,63.05
2019-03-08T14:33:29.307Z,64.88
2019-03-08T14:38:31.455Z,63.85
2019-03-08T14:43:28.303Z,63.79
2019-03-08T14:48:27.311Z,62.62
2019-03-08T14:53:28.473Z,63.90
2019-03-08T14:58:25.334Z,64.88
2019-03-08T15:03:25.347Z,64.20
2019-03-08T15:08:25.310Z,60.79
2019-03-08T15:13:25.740Z,63.55
2019-03-08T15:18:25.941Z,62.24
2019-03-08T15:23:22.838Z,64.12
2019-03-08T15:28:23.328Z,63.74
2019-03-08T15:33:22.315Z,63.26
2019-03-08T15:38:22.311Z,62.30
2019-03-08T15:43:21.394Z,63.21
2019-03-08T15:48:21.269Z,63.18
2019-03-08T15:53:21.338Z,63.14
2019-03-08T15:58:20.244Z,63.84
2019-03-08T16:03:20.343Z,64.44
2019-03-08T16:08:20.293Z,63.81
2019-03-08T16:13:20.351Z,63.56
2019-03-08T16:18:19.335Z,64.42
2019-03-08T16:23:18.287Z,64.10
2019-03-08T16:28:18.536Z,63.86
2019-03-08T16:33:18.410Z,63.24
2019-03-08T16:38:18.323Z,64.36
2019-03-08T16:43:17.353Z,64.99
2019-03-08T16:48:17.054Z,64.46
2019-03-08T16:53:16.321Z,62.53
2019-03-08T16:58:15.708Z,65.48
2019-03-08T17:03:15.348Z,66.16
2019-03-08T17:08:15.263Z,65.10
2019-03-08T17:13:15.507Z,65.33
2019-03-08T17:18:14.297Z,65.39
2019-03-08T17:23:13.592Z,65.29
2019-03-08T17:28:13.324Z,65.45
2019-03-08T17:33:13.329Z,65.45
2019-03-08T17:38:12.290Z,65.01
2019-03-08T17:43:12.554Z,65.50
2019-03-08T17:48:12.340Z,66.12
2019-03-08T17:53:11.481Z,66.86
2019-03-08T17:58:07.306Z,66.72
2019-03-08T18:03:06.498Z,68.00
2019-03-08T18:08:05.740Z,67.89
2019-03-08T18:13:06.343Z,68.50
2019-03-08T18:18:05.568Z,65.89
2019-03-08T18:23:05.315Z,67.03
2019-03-08T18:28:05.539Z,68.18
2019-03-08T18:33:05.335Z,69.04
2019-03-08T18:38:05.478Z,69.45
2019-03-08T18:43:05.674Z,70.39
2019-03-08T18:48:04.355Z,71.83
2019-03-08T18:53:03.451Z,71.58
2019-03-08T18:58:03.393Z,72.13
2019-03-08T19:03:03.401Z,72.52
2019-03-08T19:08:04.586Z,72.83
2019-03-08T19:13:05.638Z,73.34
2019-03-08T19:18:05.565Z,73.90
2019-03-08T19:23:04.564Z,73.26
2019-03-08T19:28:04.319Z,73.79
2019-03-08T19:33:04.360Z,73.47
2019-03-08T19:38:05.379Z,73.06
2019-03-08T19:43:04.402Z,73.77
2019-03-08T19:48:03.402Z,73.44
2019-03-08T19:53:03.365Z,73.24
2019-03-08T19:58:03.412Z,73.96
2019-03-08T20:03:03.359Z,73.68
2019-03-08T20:08:03.359Z,74.22
2019-03-08T20:13:02.379Z,74.25
2019-03-08T20:18:02.885Z,74.37
2019-03-08T20:23:02.414Z,74.87
2019-03-08T20:28:02.464Z,74.54
2019-03-08T20:33:02.461Z,73.79
2019-03-08T20:38:02.398Z,74.03
2019-03-08T20:43:01.735Z,74.30
2019-03-08T20:48:00.686Z,74.65
2019-03-08T20:53:00.683Z,74.21
2019-03-08T20:57:59.678Z,74.09
2019-03-08T21:02:58.746Z,74.54
2019-03-08T21:12:58.620Z,74.34
2019-03-08T21:17:58.307Z,74.36
2019-03-08T21:22:58.637Z,74.13
2019-03-08T21:27:58.360Z,74.85
2019-03-08T21:32:59.357Z,74.91
2019-03-08T21:37:59.385Z,74.64
2019-03-08T21:42:59.395Z,74.53
2019-03-08T21:47:58.672Z,74.67
2019-03-08T21:52:57.886Z,73.58
2019-03-08T21:57:57.389Z,74.47
2019-03-08T22:02:57.410Z,74.26
2019-03-08T22:07:58.250Z,75.19
2019-03-08T22:12:57.168Z,75.01
2019-03-08T22:17:57.147Z,75.28
2019-03-08T22:22:58.145Z,75.64
2019-03-08T22:27:57.195Z,75.55
2019-03-08T22:32:57.200Z,74.55
2019-03-08T22:37:56.345Z,74.47
2019-03-08T22:42:57.181Z,75.18
2019-03-08T22:47:56.672Z,74.53
2019-03-08T22:52:57.157Z,74.09
2019-03-08T22:57:56.177Z,75.40
2019-03-08T23:02:55.168Z,75.25
2019-03-08T23:07:55.260Z,76.61
2019-03-08T23:12:55.218Z,76.68
2019-03-08T23:17:55.257Z,78.26
2019-03-08T23:22:55.159Z,78.94
2019-03-08T23:27:55.202Z,78.35
2019-03-08T23:32:55.176Z,78.54
2019-03-08T23:37:54.479Z,79.49
2019-03-08T23:42:54.253Z,78.79
2019-03-08T23:47:54.187Z,79.67
2019-03-08T23:52:54.224Z,79.95
2019-03-08T23:57:54.181Z,79.83
